createdAt,value
2018-03-25T00:00:34.457Z,60.30
2018-03-25T00:03:00.697Z,60.30
2018-03-25T00:05:26.938Z,60.70
2018-03-25T00:07:53.124Z,61.20
2018-03-25T00:10:19.351Z,61.10
2018-03-25T00:12:45.544Z,61.50
2018-03-25T00:15:12.539Z,61.60
2018-03-25T00:17:38.752Z,61.50
2018-03-25T00:20:05.004Z,61.70
2018-03-25T00:22:31.230Z,62.10
2018-03-25T00:24:57.445Z,61.90
2018-03-25T00:27:23.657Z,61.90
2018-03-25T00:29:49.881Z,61.40
2018-03-25T00:32:16.072Z,61.70
2018-03-25T00:34:43.061Z,62.50
2018-03-25T00:37:09.339Z,61.70
2018-03-25T00:39:36.311Z,61.50
2018-03-25T00:42:02.560Z,61.50
2018-03-25T00:44:28.771Z,61.20
2018-03-25T00:46:55.076Z,61.20
2018-03-25T00:49:22.079Z,61.80
2018-03-25T00:51:48.522Z,61.10
2018-03-25T00:54:14.724Z,61.00
2018-03-25T00:56:40.937Z,61.00
2018-03-25T00:59:07.160Z,61.40
2018-03-25T01:01:33.401Z,61.50
2018-03-25T01:03:59.630Z,61.80
2018-03-25T01:06:25.862Z,61.80
2018-03-25T01:08:52.106Z,62.40
2018-03-25T01:11:18.332Z,62.60
2018-03-25T01:13:44.586Z,62.30
2018-03-25T01:16:12.686Z,62.80
2018-03-25T01:18:39.649Z,63.30
2018-03-25T01:21:05.849Z,63.10
2018-03-25T01:23:32.853Z,62.10
2018-03-25T01:25:59.033Z,62.10
2018-03-25T01:28:25.952Z,62.10
2018-03-25T01:30:52.208Z,62.10
2018-03-25T01:33:19.190Z,62.50
2018-03-25T01:35:45.440Z,62.50
2018-03-25T01:38:11.665Z,63.00
2018-03-25T01:40:37.945Z,63.30
2018-03-25T01:43:04.920Z,64.40
2018-03-25T01:45:31.118Z,64.40
2018-03-25T01:47:57.328Z,63.90
2018-03-25T01:50:23.518Z,63.80
2018-03-25T01:52:49.755Z,63.10
2018-03-25T01:55:16.036Z,63.20
2018-03-25T01:57:42.254Z,64.00
2018-03-25T02:00:09.229Z,63.30
2018-03-25T02:02:35.425Z,63.20
2018-03-25T02:05:01.663Z,63.40
2018-03-25T02:07:27.872Z,63.10
2018-03-25T02:09:54.093Z,62.70
2018-03-25T02:12:20.283Z,62.30
2018-03-25T02:14:46.521Z,61.80
2018-03-25T02:17:12.780Z,62.30
2018-03-25T02:19:39.022Z,62.20
2018-03-25T02:22:06.029Z,62.30
2018-03-25T02:24:32.223Z,62.30
2018-03-25T02:26:58.501Z,62.60
2018-03-25T02:29:24.743Z,62.40
2018-03-25T02:31:50.954Z,62.40
2018-03-25T02:34:17.197Z,62.20
2018-03-25T02:36:43.394Z,62.40
2018-03-25T02:39:09.672Z,61.90
2018-03-25T02:41:35.874Z,61.30
2018-03-25T02:44:02.098Z,61.50
2018-03-25T02:46:28.337Z,62.40
2018-03-25T02:48:54.552Z,61.70
2018-03-25T02:51:20.763Z,62.40
2018-03-25T02:53:46.956Z,62.90
2018-03-25T02:56:13.190Z,62.60
2018-03-25T02:58:39.407Z,62.70
2018-03-25T03:01:05.676Z,62.60
2018-03-25T03:03:31.860Z,63.10
2018-03-25T03:05:58.114Z,63.40
2018-03-25T03:08:24.354Z,64.10
2018-03-25T03:10:50.626Z,65.00
2018-03-25T03:13:16.922Z,65.10
2018-03-25T03:15:43.152Z,65.70
2018-03-25T03:18:09.357Z,65.80
2018-03-25T03:20:35.594Z,65.80
2018-03-25T03:23:01.822Z,65.30
2018-03-25T03:25:28.028Z,65.30
2018-03-25T03:27:54.205Z,65.20
2018-03-25T03:30:20.434Z,66.00
2018-03-25T03:32:46.659Z,65.80
2018-03-25T03:35:12.844Z,66.10
2018-03-25T03:37:39.127Z,66.00
2018-03-25T03:40:05.329Z,65.40
2018-03-25T03:42:31.535Z,65.60
2018-03-25T03:44:57.801Z,65.30
2018-03-25T03:47:24.059Z,64.90
2018-03-25T03:49:50.325Z,64.50
2018-03-25T03:52:16.542Z,64.70
2018-03-25T03:54:42.784Z,64.90
2018-03-25T03:57:09.002Z,64.60
2018-03-25T03:59:35.194Z,64.50
2018-03-25T04:02:02.184Z,64.10
2018-03-25T04:04:28.391Z,64.10
2018-03-25T04:06:54.657Z,64.80
2018-03-25T04:09:20.864Z,64.50
2018-03-25T04:11:47.073Z,64.10
2018-03-25T04:14:13.365Z,64.30
2018-03-25T04:16:40.393Z,64.50
2018-03-25T04:19:06.620Z,64.50
2018-03-25T04:21:32.839Z,64.60
2018-03-25T04:23:59.074Z,64.50
2018-03-25T04:26:25.318Z,64.40
2018-03-25T04:28:51.756Z,64.10
2018-03-25T04:31:18.032Z,64.20
2018-03-25T04:33:44.274Z,64.30
2018-03-25T04:36:10.516Z,63.70
2018-03-25T04:38:36.794Z,64.00
2018-03-25T04:41:03.001Z,63.90
2018-03-25T04:43:29.234Z,63.90
2018-03-25T04:45:56.145Z,63.20
2018-03-25T04:48:22.412Z,63.70
2018-03-25T04:50:49.397Z,63.90
2018-03-25T04:53:15.633Z,63.70
2018-03-25T04:55:41.936Z,63.70
2018-03-25T04:58:08.141Z,63.40
2018-03-25T05:00:34.381Z,62.90
2018-03-25T05:03:00.620Z,63.00
2018-03-25T05:05:26.865Z,62.90
2018-03-25T05:07:53.102Z,63.20
2018-03-25T05:10:19.322Z,63.30
2018-03-25T05:12:45.573Z,63.50
2018-03-25T05:15:11.813Z,63.90
2018-03-25T05:17:38.064Z,63.90
2018-03-25T05:20:05.088Z,63.90
2018-03-25T05:22:31.291Z,63.90
2018-03-25T05:24:57.533Z,64.00
2018-03-25T05:27:23.777Z,64.20
2018-03-25T05:29:50.040Z,64.40
2018-03-25T05:32:17.012Z,64.50
2018-03-25T05:34:43.220Z,64.50
2018-03-25T05:37:09.431Z,65.10
2018-03-25T05:39:36.369Z,65.50
2018-03-25T05:42:03.319Z,65.50
2018-03-25T05:44:30.295Z,66.60
2018-03-25T05:46:56.528Z,66.60
2018-03-25T05:49:22.764Z,66.60
2018-03-25T05:51:49.016Z,66.10
2018-03-25T05:54:15.269Z,66.20
2018-03-25T05:56:42.230Z,66.00
2018-03-25T05:59:09.192Z,65.80
2018-03-25T06:01:35.406Z,65.70
2018-03-25T06:04:02.364Z,65.80
2018-03-25T06:06:28.591Z,65.80
2018-03-25T06:08:54.805Z,65.50
2018-03-25T06:11:21.765Z,66.40
2018-03-25T06:13:47.981Z,66.30
2018-03-25T06:16:15.012Z,66.60
2018-03-25T06:18:41.978Z,66.90
2018-03-25T06:21:09.305Z,66.70
2018-03-25T06:23:35.497Z,67.30
2018-03-25T06:26:01.717Z,67.40
2018-03-25T06:28:27.943Z,68.50
2018-03-25T06:30:54.152Z,67.20
2018-03-25T06:33:20.497Z,68.20
2018-03-25T06:35:46.697Z,68.10
2018-03-25T06:38:13.008Z,68.00
2018-03-25T06:40:39.410Z,67.20
2018-03-25T06:43:05.673Z,67.90
2018-03-25T06:45:31.883Z,66.90
2018-03-25T06:47:58.118Z,67.10
2018-03-25T06:50:24.306Z,68.50
2018-03-25T06:52:50.518Z,68.70
2018-03-25T06:55:16.704Z,70.30
2018-03-25T06:57:44.971Z,70.70
2018-03-25T07:00:12.003Z,70.70
2018-03-25T07:02:38.252Z,70.60
2018-03-25T07:05:04.484Z,71.00
2018-03-25T07:07:30.794Z,71.60
2018-03-25T07:09:57.135Z,70.90
2018-03-25T07:12:25.228Z,68.90
2018-03-25T07:14:52.192Z,68.40
2018-03-25T07:17:18.416Z,68.30
2018-03-25T07:19:45.486Z,71.10
2018-03-25T07:22:11.743Z,69.00
2018-03-25T07:24:38.080Z,68.70
2018-03-25T07:27:04.277Z,68.20
2018-03-25T07:29:30.521Z,67.70
2018-03-25T07:31:56.770Z,68.10
2018-03-25T07:34:22.960Z,67.90
2018-03-25T07:36:49.212Z,67.80
2018-03-25T07:39:15.451Z,68.60
2018-03-25T07:41:41.707Z,68.60
2018-03-25T07:44:08.669Z,67.90
2018-03-25T07:46:34.876Z,67.80
2018-03-25T07:49:01.865Z,69.60
2018-03-25T07:51:28.105Z,69.60
2018-03-25T07:53:54.332Z,68.30
2018-03-25T07:56:20.541Z,68.50
2018-03-25T07:58:46.771Z,68.20
2018-03-25T08:01:13.042Z,68.80
2018-03-25T08:03:39.293Z,69.00
2018-03-25T08:06:07.340Z,68.20
2018-03-25T08:08:33.544Z,68.10
2018-03-25T08:10:59.757Z,67.10
2018-03-25T08:13:25.996Z,69.60
2018-03-25T08:15:52.225Z,70.30
2018-03-25T08:18:18.443Z,68.20
2018-03-25T08:20:44.626Z,66.90
2018-03-25T08:23:11.606Z,67.10
2018-03-25T08:25:37.836Z,67.00
2018-03-25T08:28:04.092Z,65.70
2018-03-25T08:30:30.279Z,65.20
2018-03-25T08:32:56.484Z,64.70
2018-03-25T08:35:22.682Z,63.30
2018-03-25T08:37:48.884Z,62.40
2018-03-25T08:40:15.165Z,62.60
2018-03-25T08:42:41.361Z,61.20
2018-03-25T08:45:07.585Z,62.30
2018-03-25T08:47:33.824Z,62.30
2018-03-25T08:50:00.070Z,61.30
2018-03-25T08:52:27.072Z,62.30
2018-03-25T08:54:53.327Z,62.20
2018-03-25T08:57:19.503Z,61.60
2018-03-25T08:59:45.775Z,61.60
2018-03-25T09:02:12.034Z,61.30
2018-03-25T09:04:38.991Z,61.20
2018-03-25T09:07:05.281Z,61.20
2018-03-25T09:09:31.464Z,62.30
2018-03-25T09:11:57.656Z,60.10
2018-03-25T09:14:23.921Z,60.20
2018-03-25T09:16:50.148Z,60.00
2018-03-25T09:19:16.429Z,60.00
2018-03-25T09:21:42.720Z,61.00
2018-03-25T09:24:08.967Z,60.40
2018-03-25T09:26:35.192Z,59.90
2018-03-25T09:29:01.400Z,60.70
2018-03-25T09:31:27.615Z,60.50
2018-03-25T09:33:53.840Z,61.30
2018-03-25T09:36:20.054Z,62.90
2018-03-25T09:38:46.302Z,60.80
2018-03-25T09:41:16.014Z,59.90
2018-03-25T09:43:42.236Z,60.30
2018-03-25T09:46:08.473Z,60.40
2018-03-25T09:48:34.692Z,58.50
2018-03-25T09:51:00.959Z,59.00
2018-03-25T09:53:27.192Z,58.90
2018-03-25T09:55:53.419Z,58.40
2018-03-25T09:58:19.614Z,58.10
2018-03-25T10:00:48.911Z,58.30
2018-03-25T10:03:15.178Z,59.80
2018-03-25T10:05:41.407Z,58.70
2018-03-25T10:08:07.612Z,60.50
2018-03-25T10:10:33.846Z,60.60
2018-03-25T10:13:00.082Z,59.20
2018-03-25T10:15:26.282Z,58.50
2018-03-25T10:17:52.561Z,58.40
2018-03-25T10:20:18.789Z,56.90
2018-03-25T10:22:45.036Z,59.80
2018-03-25T10:25:12.029Z,56.40
2018-03-25T10:27:38.372Z,56.40
2018-03-25T10:30:04.609Z,56.30
2018-03-25T10:32:30.860Z,56.60
2018-03-25T10:34:57.812Z,57.40
2018-03-25T10:37:24.051Z,56.60
2018-03-25T10:39:51.021Z,57.60
2018-03-25T10:42:17.241Z,57.60
2018-03-25T10:44:43.453Z,59.50
2018-03-25T10:47:09.684Z,58.00
2018-03-25T10:49:35.934Z,57.40
2018-03-25T10:52:02.209Z,58.50
2018-03-25T10:54:28.472Z,56.70
2018-03-25T10:56:54.734Z,55.10
2018-03-25T10:59:20.999Z,57.70
2018-03-25T11:01:47.316Z,57.60
2018-03-25T11:04:13.576Z,55.60
2018-03-25T11:06:40.539Z,57.00
2018-03-25T11:09:07.148Z,57.00
2018-03-25T11:11:42.230Z,56.40
2018-03-25T11:14:08.481Z,56.20
2018-03-25T11:16:36.760Z,55.90
2018-03-25T11:19:06.726Z,55.00
2018-03-25T11:21:33.005Z,55.10
2018-03-25T11:27:03.847Z,56.40
2018-03-25T11:29:30.060Z,56.00
2018-03-25T11:31:56.312Z,56.10
2018-03-25T11:34:22.567Z,55.90
2018-03-25T11:36:48.805Z,57.30
2018-03-25T11:39:15.740Z,53.80
2018-03-25T11:41:42.931Z,55.00
2018-03-25T11:44:09.215Z,54.50
2018-03-25T11:46:35.437Z,53.20
2018-03-25T11:49:01.656Z,54.80
2018-03-25T11:51:27.841Z,54.70
2018-03-25T11:53:54.020Z,54.60
2018-03-25T11:56:20.260Z,53.30
2018-03-25T11:58:46.474Z,54.50
2018-03-25T12:01:13.507Z,53.00
2018-03-25T12:03:39.728Z,52.90
2018-03-25T12:06:05.962Z,54.30
2018-03-25T12:08:32.252Z,52.90
2018-03-25T12:10:58.446Z,52.20
2018-03-25T12:13:24.701Z,53.50
2018-03-25T12:15:50.965Z,53.20
2018-03-25T12:18:17.178Z,52.60
2018-03-25T12:20:43.423Z,52.20
2018-03-25T12:23:09.699Z,53.50
2018-03-25T12:25:36.652Z,51.00
2018-03-25T12:28:03.673Z,50.60
2018-03-25T12:30:29.872Z,50.50
2018-03-25T12:32:56.113Z,50.60
2018-03-25T12:35:22.357Z,49.50
2018-03-25T12:37:48.594Z,49.30
2018-03-25T12:40:14.825Z,48.20
2018-03-25T12:42:41.158Z,48.90
2018-03-25T12:45:08.143Z,50.00
2018-03-25T12:47:34.323Z,49.90
2018-03-25T12:50:00.608Z,48.20
2018-03-25T12:52:26.882Z,48.40
2018-03-25T12:54:53.103Z,47.20
2018-03-25T12:57:19.315Z,50.20
2018-03-25T12:59:45.551Z,47.60
2018-03-25T13:02:11.837Z,47.00
2018-03-25T13:04:38.111Z,47.40
2018-03-25T13:07:04.411Z,47.20
2018-03-25T13:09:30.655Z,46.10
2018-03-25T13:11:56.889Z,46.80
2018-03-25T13:14:23.098Z,44.60
2018-03-25T13:16:49.261Z,43.50
2018-03-25T13:19:15.480Z,44.30
2018-03-25T13:21:41.732Z,44.00
2018-03-25T13:24:08.673Z,42.50
2018-03-25T13:26:35.621Z,42.60
2018-03-25T13:29:02.662Z,42.60
2018-03-25T13:31:28.904Z,42.50
2018-03-25T13:33:55.844Z,42.40
2018-03-25T13:36:22.808Z,42.00
2018-03-25T13:38:49.064Z,41.90
2018-03-25T13:41:15.337Z,42.60
2018-03-25T13:43:42.329Z,41.00
2018-03-25T13:46:08.533Z,40.90
2018-03-25T13:48:35.480Z,41.70
2018-03-25T13:51:01.709Z,41.60
2018-03-25T13:53:27.983Z,40.80
2018-03-25T13:55:54.259Z,42.10
2018-03-25T13:58:20.482Z,41.50
2018-03-25T14:00:46.759Z,41.20
2018-03-25T14:03:12.989Z,41.50
2018-03-25T14:05:39.281Z,41.50
2018-03-25T14:08:05.560Z,41.70
2018-03-25T14:10:31.833Z,40.40
2018-03-25T14:12:58.104Z,39.60
2018-03-25T14:15:24.332Z,38.30
2018-03-25T14:17:50.566Z,37.70
2018-03-25T14:20:16.768Z,39.50
2018-03-25T14:22:42.996Z,37.30
2018-03-25T14:25:09.307Z,36.50
2018-03-25T14:27:35.557Z,38.40
2018-03-25T14:30:02.560Z,39.50
2018-03-25T14:32:29.546Z,39.10
2018-03-25T14:34:55.832Z,39.10
2018-03-25T14:37:22.062Z,38.80
2018-03-25T14:39:49.060Z,41.10
2018-03-25T14:42:15.282Z,41.10
2018-03-25T14:44:41.580Z,39.40
2018-03-25T14:47:08.532Z,38.60
2018-03-25T14:49:34.804Z,38.50
2018-03-25T14:52:01.036Z,39.20
2018-03-25T14:54:27.315Z,39.30
2018-03-25T14:56:53.525Z,39.30
2018-03-25T14:59:19.772Z,37.60
2018-03-25T15:01:46.775Z,39.30
2018-03-25T15:04:13.052Z,39.30
2018-03-25T15:06:39.241Z,39.90
2018-03-25T15:09:05.631Z,40.80
2018-03-25T15:11:31.808Z,41.40
2018-03-25T15:13:57.996Z,40.80
2018-03-25T15:16:24.250Z,40.20
2018-03-25T15:18:50.464Z,39.90
2018-03-25T15:21:16.757Z,39.50
2018-03-25T15:23:42.920Z,41.10
2018-03-25T15:26:09.168Z,41.90
2018-03-25T15:28:35.422Z,40.60
2018-03-25T15:31:02.402Z,40.70
2018-03-25T15:33:28.681Z,40.60
2018-03-25T15:35:54.893Z,41.20
2018-03-25T15:38:21.249Z,41.60
2018-03-25T15:40:47.417Z,42.40
2018-03-25T15:43:13.642Z,40.00
2018-03-25T15:45:39.914Z,39.70
2018-03-25T15:48:06.084Z,40.40
2018-03-25T15:50:32.338Z,40.10
2018-03-25T15:52:58.558Z,40.60
2018-03-25T15:55:24.805Z,40.40
2018-03-25T15:57:51.028Z,40.50
2018-03-25T16:00:17.296Z,40.80
2018-03-25T16:02:43.542Z,41.80
2018-03-25T16:05:10.489Z,41.20
2018-03-25T16:07:37.455Z,41.20
2018-03-25T16:10:03.682Z,41.00
2018-03-25T16:12:29.934Z,40.10
2018-03-25T16:14:56.281Z,40.70
2018-03-25T16:17:22.466Z,41.10
2018-03-25T16:19:48.734Z,41.30
2018-03-25T16:22:14.920Z,42.30
2018-03-25T16:24:41.118Z,42.20
2018-03-25T16:27:08.140Z,41.00
2018-03-25T16:29:34.432Z,40.80
2018-03-25T16:32:00.614Z,42.60
2018-03-25T16:34:26.834Z,42.20
2018-03-25T16:36:53.104Z,40.60
2018-03-25T16:39:23.051Z,41.30
2018-03-25T16:41:49.288Z,41.50
2018-03-25T16:44:15.564Z,42.30
2018-03-25T16:46:41.798Z,42.30
2018-03-25T16:49:08.041Z,42.60
2018-03-25T16:51:34.303Z,41.70
2018-03-25T16:54:00.584Z,42.80
2018-03-25T16:59:36.603Z,43.70
2018-03-25T17:02:02.807Z,43.40
2018-03-25T17:04:29.013Z,44.10
2018-03-25T17:06:55.237Z,43.80
2018-03-25T17:09:22.153Z,44.00
2018-03-25T17:11:48.397Z,44.00
2018-03-25T17:14:14.628Z,44.40
2018-03-25T17:16:40.924Z,44.10
2018-03-25T17:19:07.136Z,44.30
2018-03-25T17:21:35.426Z,43.80
2018-03-25T17:24:01.638Z,43.30
2018-03-25T17:26:27.836Z,42.60
2018-03-25T17:28:54.084Z,42.80
2018-03-25T17:31:20.320Z,42.80
2018-03-25T17:33:46.539Z,42.60
2018-03-25T17:36:12.792Z,43.30
2018-03-25T17:38:38.989Z,43.20
2018-03-25T17:41:05.249Z,43.80
2018-03-25T17:43:31.467Z,43.80
2018-03-25T17:45:57.729Z,44.50
2018-03-25T17:48:23.988Z,44.90
2018-03-25T17:50:50.217Z,45.00
2018-03-25T17:53:16.440Z,44.90
2018-03-25T17:55:43.424Z,44.60
2018-03-25T17:58:09.669Z,44.50
2018-03-25T18:00:35.899Z,45.20
2018-03-25T18:03:02.156Z,45.30
2018-03-25T18:05:29.113Z,46.10
2018-03-25T18:07:56.089Z,46.10
2018-03-25T18:10:22.308Z,46.10
2018-03-25T18:12:48.581Z,46.60
2018-03-25T18:15:14.819Z,46.70
2018-03-25T18:17:40.998Z,46.80
2018-03-25T18:20:07.234Z,47.20
2018-03-25T18:22:33.442Z,48.10
2018-03-25T18:24:59.667Z,47.70
2018-03-25T18:27:25.881Z,47.90
2018-03-25T18:29:52.808Z,46.80
2018-03-25T18:32:19.094Z,46.80
2018-03-25T18:34:45.296Z,47.40
2018-03-25T18:37:11.583Z,48.30
2018-03-25T18:39:37.732Z,48.30
2018-03-25T18:42:04.724Z,49.90
2018-03-25T18:44:30.992Z,49.80
2018-03-25T18:46:57.212Z,50.60
2018-03-25T18:49:23.547Z,51.00
2018-03-25T18:51:49.774Z,51.10
2018-03-25T18:54:16.271Z,51.20
2018-03-25T18:56:42.486Z,50.90
2018-03-25T18:59:08.748Z,50.70
2018-03-25T19:01:35.017Z,50.90
2018-03-25T19:04:01.982Z,51.00
2018-03-25T19:06:28.196Z,51.00
2018-03-25T19:08:54.502Z,51.00
2018-03-25T19:11:20.708Z,51.10
2018-03-25T19:13:47.122Z,50.50
2018-03-25T19:16:13.383Z,50.50
2018-03-25T19:18:39.609Z,50.80
2018-03-25T19:21:05.856Z,51.00
2018-03-25T19:23:32.816Z,51.40
2018-03-25T19:25:59.033Z,51.30
2018-03-25T19:28:25.996Z,50.30
2018-03-25T19:30:52.200Z,50.30
2018-03-25T19:33:18.483Z,50.80
2018-03-25T19:35:44.762Z,50.90
2018-03-25T19:38:11.750Z,51.40
2018-03-25T19:40:37.941Z,51.40
2018-03-25T19:43:04.945Z,51.30
2018-03-25T19:45:31.212Z,51.20
2018-03-25T19:47:58.176Z,51.50
2018-03-25T19:50:24.417Z,51.50
2018-03-25T19:52:50.662Z,51.60
2018-03-25T19:55:16.842Z,51.80
2018-03-25T19:57:43.896Z,52.50
2018-03-25T20:00:10.126Z,52.40
2018-03-25T20:02:38.203Z,52.90
2018-03-25T20:05:04.482Z,52.90
2018-03-25T20:07:30.676Z,52.60
2018-03-25T20:09:56.931Z,52.40
2018-03-25T20:12:23.168Z,52.70
2018-03-25T20:14:49.404Z,52.60
2018-03-25T20:17:15.728Z,52.60
2018-03-25T20:19:41.969Z,52.50
2018-03-25T20:22:08.217Z,53.10
2018-03-25T20:24:35.159Z,53.30
2018-03-25T20:27:02.193Z,53.90
2018-03-25T20:29:28.408Z,53.40
2018-03-25T20:31:54.624Z,54.40
2018-03-25T20:34:20.848Z,53.80
2018-03-25T20:36:47.090Z,54.10
2018-03-25T20:39:13.321Z,53.70
2018-03-25T20:41:39.656Z,53.50
2018-03-25T20:44:05.889Z,53.40
2018-03-25T20:46:32.109Z,53.50
2018-03-25T20:48:59.085Z,53.40
2018-03-25T20:51:25.394Z,53.40
2018-03-25T20:53:51.614Z,53.40
2018-03-25T20:56:17.866Z,54.20
2018-03-25T20:58:44.827Z,55.80
2018-03-25T21:01:11.031Z,55.70
2018-03-25T21:03:37.247Z,55.80
2018-03-25T21:06:03.483Z,55.70
2018-03-25T21:08:29.733Z,56.00
2018-03-25T21:10:56.710Z,55.80
2018-03-25T21:13:22.984Z,55.70
2018-03-25T21:15:49.202Z,55.60
2018-03-25T21:18:16.262Z,56.20
2018-03-25T21:20:42.460Z,56.00
2018-03-25T21:23:08.659Z,56.40
2018-03-25T21:25:34.921Z,56.70
2018-03-25T21:28:01.150Z,56.10
2018-03-25T21:30:27.444Z,55.70
2018-03-25T21:32:53.706Z,55.40
2018-03-25T21:35:19.935Z,55.50
2018-03-25T21:37:46.169Z,56.30
2018-03-25T21:40:12.425Z,56.30
2018-03-25T21:42:39.426Z,56.10
2018-03-25T21:45:05.679Z,56.10
2018-03-25T21:47:31.948Z,55.80
2018-03-25T21:49:58.157Z,55.40
2018-03-25T21:52:25.215Z,55.50
2018-03-25T21:54:51.438Z,55.50
2018-03-25T21:57:18.376Z,55.50
2018-03-25T21:59:44.715Z,55.40
2018-03-25T22:02:12.329Z,56.10
2018-03-25T22:04:38.555Z,56.10
2018-03-25T22:07:05.806Z,56.20
2018-03-25T22:09:32.045Z,56.10
2018-03-25T22:11:58.280Z,56.10
2018-03-25T22:14:24.532Z,56.10
2018-03-25T22:16:50.765Z,56.00
2018-03-25T22:19:17.309Z,56.30
2018-03-25T22:21:43.594Z,56.10
2018-03-25T22:24:09.913Z,56.50
2018-03-25T22:26:36.196Z,56.10
2018-03-25T22:29:02.476Z,56.10
2018-03-25T22:31:29.789Z,56.20
2018-03-25T22:33:56.010Z,56.10
2018-03-25T22:36:22.212Z,56.40
2018-03-25T22:38:48.485Z,56.10
2018-03-25T22:41:14.737Z,55.80
2018-03-25T22:43:40.974Z,56.10
2018-03-25T22:46:07.175Z,56.60
2018-03-25T22:48:33.506Z,56.80
2018-03-25T22:50:59.713Z,56.90
2018-03-25T22:53:25.938Z,56.60
2018-03-25T22:55:52.152Z,57.00
2018-03-25T22:58:18.365Z,57.40
2018-03-25T23:00:44.756Z,58.00
2018-03-25T23:03:11.041Z,57.80
2018-03-25T23:05:37.993Z,58.00
2018-03-25T23:08:04.252Z,57.90
2018-03-25T23:10:30.489Z,57.80
2018-03-25T23:12:56.712Z,58.00
2018-03-25T23:15:22.932Z,57.60
2018-03-25T23:17:49.146Z,57.80
2018-03-25T23:20:15.389Z,58.00
2018-03-25T23:22:41.626Z,58.20
2018-03-25T23:25:07.889Z,58.40
2018-03-25T23:27:34.174Z,58.90
2018-03-25T23:30:00.389Z,59.00
2018-03-25T23:32:26.577Z,59.00
2018-03-25T23:34:53.579Z,58.90
2018-03-25T23:37:19.811Z,58.90
2018-03-25T23:39:46.042Z,58.70
2018-03-25T23:42:12.295Z,58.90
2018-03-25T23:44:38.496Z,58.80
2018-03-25T23:47:04.689Z,59.00
2018-03-25T23:49:30.931Z,59.30
2018-03-25T23:51:57.194Z,59.50
2018-03-25T23:54:23.456Z,59.70
2018-03-25T23:56:49.696Z,59.30
2018-03-25T23:59:15.896Z,59.30
